Terminal Aerodrome Forecast
Issued by NWS Louisville, KY

Home | Current Version | Previous Version | Text Only | Print | Product List | Glossary On
Versions: 1 2 3 4 5 6 7 8 9 10 11 12 13 14 15 16 17
000
FTUS43 KLMK 010500
TAFLEX
TAF
KLEX 010520Z 0106/0206 16005KT P6SM OVC100
     FM011200 15010G18KT P6SM OVC100
     FM011900 19014G24KT 6SM -RA OVC025
     FM020200 24012KT P6SM VCSH OVC020=

USA.gov is the U.S. government's official web portal to all federal, state and local government web resources and services.